Time;durP1;ratioP1;P1;durP2;ratioP2;P2;SDS_P1;SDS_P2;PMS_P1;PMS_P2;Temp;Humidity;BMP_temperature;BMP_pressure;BME280_temperature;BME280_humidity;BME280_pressure;Samples;Min_cycle;Max_cycle;Signal;HPM_P1;HPM_P2
2023/07/16 00:00:41;;;;;;;3.85;1.90;;;;;;;21.33;100.00;100133.16;4979412;28;20545;-83
2023/07/16 00:03:07;;;;;;;3.92;1.92;;;;;;;21.24;100.00;100133.03;4986914;28;20041;-82
2023/07/16 00:05:33;;;;;;;4.35;1.80;;;;;;;21.02;100.00;100133.63;5003755;28;20026;-84
2023/07/16 00:07:59;;;;;;;3.75;1.77;;;20.90;99.90;;;21.03;100.00;100141.66;4982104;28;20122;-82
2023/07/16 00:10:24;;;;;;;3.03;1.70;;;21.10;99.90;;;20.99;100.00;100135.06;4986605;28;20030;-82
2023/07/16 00:12:50;;;;;;;4.35;2.00;;;21.00;99.90;;;20.91;100.00;100127.41;4989496;28;20466;-83
2023/07/16 00:15:16;;;;;;;5.25;1.70;;;20.90;99.90;;;21.01;100.00;100126.44;4984155;28;20038;-82
2023/07/16 00:17:41;;;;;;;5.18;2.00;;;20.90;99.90;;;20.88;100.00;100130.78;4989489;28;20043;-83
2023/07/16 00:20:09;;;;;;;3.78;1.80;;;20.80;99.90;;;20.93;100.00;100141.78;4989441;28;20038;-82
2023/07/16 00:22:35;;;;;;;3.43;1.90;;;20.80;99.90;;;20.81;100.00;100140.28;4989785;28;20061;-82
2023/07/16 00:25:01;;;;;;;7.53;2.25;;;20.80;99.90;;;20.90;100.00;100126.59;4988140;28;20303;-82
2023/07/16 00:27:26;;;;;;;4.90;1.60;;;20.70;99.90;;;20.83;100.00;100102.00;4982792;28;20034;-81
2023/07/16 00:29:52;;;;;;;3.50;1.77;;;20.50;99.90;;;20.69;100.00;100082.50;5004612;28;20034;-81
2023/07/16 00:32:18;;;;;;;3.88;1.70;;;20.50;99.90;;;20.71;100.00;100085.00;4980409;28;20145;-82
2023/07/16 00:34:44;;;;;;;4.18;1.80;;;20.40;99.90;;;20.63;100.00;100102.25;4986763;28;20042;-82
2023/07/16 00:37:10;;;;;;;4.18;1.90;;;20.30;99.90;;;20.54;100.00;100093.78;5004267;28;20047;-82
2023/07/16 00:39:35;;;;;;;3.35;1.65;;;20.20;99.90;;;20.56;100.00;100088.78;4988572;28;20034;-81
2023/07/16 00:42:01;;;;;;;2.95;1.55;;;20.20;99.90;;;20.48;100.00;100093.06;4987720;28;20077;-81
2023/07/16 00:44:27;;;;;;;3.03;1.75;;;20.10;99.90;;;20.31;100.00;100084.41;4981448;28;20053;-81
2023/07/16 00:46:53;;;;;;;6.28;1.60;;;20.00;99.90;;;20.25;100.00;100034.63;4981178;28;20042;-81
2023/07/16 00:49:19;;;;;;;5.65;1.75;;;20.00;99.90;;;20.15;100.00;100017.31;4986188;28;20035;-81
2023/07/16 00:51:45;;;;;;;3.72;1.67;;;19.80;99.90;;;20.10;100.00;100059.72;4981422;28;20046;-82
2023/07/16 00:54:11;;;;;;;4.88;1.92;;;19.80;99.90;;;19.95;100.00;100089.25;4983354;28;20169;-82
2023/07/16 00:56:38;;;;;;;5.22;1.88;;;19.60;99.90;;;19.73;100.00;100084.16;4983194;28;20566;-82
2023/07/16 00:59:04;;;;;;;5.15;2.03;;;19.60;99.90;;;19.72;100.00;100099.13;4983813;28;20034;-80
2023/07/16 01:01:29;;;;;;;3.13;1.70;;;19.50;99.90;;;19.77;100.00;100095.50;4984836;28;20128;-81
2023/07/16 01:03:55;;;;;;;3.03;1.80;;;19.50;99.90;;;19.64;100.00;100097.84;4988945;28;20035;-81
2023/07/16 01:06:34;;;;;;;6.20;2.17;;;19.50;99.90;;;19.57;100.00;100097.34;4982977;28;20062;-80
2023/07/16 01:09:16;;;;;;;4.72;1.90;;;19.50;99.90;;;19.73;100.00;100149.78;4989224;28;20054;-81
2023/07/16 01:11:44;;;;;;;4.32;1.73;;;19.50;99.90;;;19.73;100.00;100149.78;4983389;28;20031;-81
2023/07/16 01:14:13;;;;;;;3.13;1.80;;;19.40;99.90;;;19.74;100.00;100154.19;4982251;28;20045;-81
2023/07/16 01:16:41;;;;;;;3.03;1.70;;;19.40;99.90;;;19.64;100.00;100125.50;4983949;28;20506;-81
2023/07/16 01:19:07;;;;;;;3.97;1.95;;;19.40;99.90;;;19.65;100.00;100109.72;4986042;28;20049;-81
2023/07/16 01:22:06;;;;;;;4.22;1.90;;;19.50;99.90;;;19.73;100.00;100105.50;4988643;28;20077;-81
2023/07/16 01:25:21;;;;;;;3.92;1.60;;;19.60;99.90;;;19.84;100.00;100115.34;4987812;28;20506;-82
2023/07/16 01:28:08;;;;;;;5.95;1.98;;;19.60;99.90;;;19.89;100.00;100137.44;5010126;28;20053;-81
2023/07/16 01:30:38;;;;;;;5.25;2.05;;;19.70;99.90;;;19.94;100.00;100148.50;4994449;28;20038;-81
2023/07/16 01:33:05;;;;;;;4.63;1.90;;;19.80;99.90;;;19.97;100.00;100155.38;4993927;28;20034;-81
2023/07/16 01:35:33;;;;;;;3.92;1.90;;;19.80;99.90;;;19.90;100.00;100164.00;4986351;28;20053;-81
2023/07/16 01:37:59;;;;;;;;;;;19.80;99.90;;;19.88;100.00;100146.84;5005707;28;20042;-82
2023/07/16 01:40:25;;;;;;;3.85;1.95;;;19.70;99.90;;;19.79;100.00;100143.06;4990027;28;19921;-82
2023/07/16 01:42:50;;;;;;;3.65;1.83;;;19.60;99.90;;;19.62;100.00;100149.84;4984660;28;20041;-82
2023/07/16 01:45:16;;;;;;;3.25;2.10;;;19.50;99.90;;;19.57;100.00;100116.69;5007227;28;20050;-84
2023/07/16 01:48:05;;;;;;;4.60;2.13;;;19.40;99.90;;;19.34;100.00;100121.84;4982114;28;20046;-82
2023/07/16 01:50:31;;;;;;;;;;;19.20;99.90;;;19.44;100.00;100125.69;4989267;28;20054;-81
2023/07/16 01:52:57;;;;;;;5.03;1.92;;;19.30;99.90;;;19.43;100.00;100146.16;5003511;28;20586;-83
2023/07/16 01:55:25;;;;;;;3.63;1.60;;;19.20;99.90;;;19.40;100.00;100125.41;4988834;28;20115;-83
2023/07/16 01:57:50;;;;;;;4.55;2.03;;;19.20;99.90;;;19.44;100.00;100136.75;4987853;28;20042;-83
2023/07/16 02:00:16;;;;;;;4.95;2.03;;;19.10;99.90;;;19.42;100.00;100145.31;4995246;28;20085;-83
2023/07/16 02:02:45;;;;;;;4.30;1.70;;;19.20;99.90;;;19.55;100.00;100133.59;4982546;28;20384;-83
2023/07/16 02:05:14;;;;;;;5.43;1.90;;;19.20;99.90;;;19.50;100.00;100122.59;4990797;28;20447;-83
2023/07/16 02:07:40;;;;;;;4.45;2.00;;;19.20;99.90;;;19.63;100.00;100115.56;4974004;28;20022;-84
2023/07/16 02:10:06;;;;;;;5.82;1.80;;;19.20;99.90;;;19.55;100.00;100107.88;4978605;28;20089;-85
2023/07/16 02:12:32;;;;;;;4.32;2.10;;;19.30;99.90;;;19.76;100.00;100108.53;4993902;28;20042;-84
2023/07/16 02:14:58;;;;;;;5.05;1.90;;;19.30;99.90;;;19.48;100.00;100104.63;4994714;28;20041;-81
2023/07/16 02:17:24;;;;;;;5.00;1.90;;;19.30;99.90;;;19.46;100.00;100109.63;5006866;28;20038;-82
2023/07/16 02:19:49;;;;;;;7.63;1.90;;;19.30;99.90;;;19.48;100.00;100130.31;4991694;28;20066;-82
2023/07/16 02:22:15;;;;;;;4.47;2.25;;;19.40;99.90;;;19.61;100.00;100145.44;4992758;28;20033;-81
2023/07/16 02:24:49;;;;;;;4.35;1.88;;;19.40;99.90;;;19.65;100.00;100152.06;4987560;28;20490;-81
2023/07/16 02:27:15;;;;;;;5.25;1.90;;;19.40;99.90;;;19.58;100.00;100148.78;4995577;28;20121;-82
2023/07/16 02:29:41;;;;;;;4.32;1.83;;;19.40;99.90;;;19.57;100.00;100162.91;4986558;28;20433;-82
2023/07/16 02:32:07;;;;;;;5.07;1.90;;;19.40;99.90;;;19.59;100.00;100169.78;4982796;28;20086;-82
2023/07/16 02:34:33;;;;;;;3.67;1.92;;;19.30;99.90;;;19.62;100.00;100143.50;5002435;28;20054;-81
2023/07/16 02:37:00;;;;;;;5.32;1.65;;;19.30;99.90;;;19.74;100.00;100145.88;4989770;28;20030;-82
2023/07/16 02:39:27;;;;;;;4.30;2.05;;;19.30;99.90;;;19.58;100.00;100151.53;4980864;28;20184;-82
2023/07/16 02:41:53;;;;;;;4.20;1.80;;;19.20;99.90;;;19.58;100.00;100154.31;4989854;28;20038;-81
2023/07/16 02:44:18;;;;;;;4.22;1.80;;;19.20;99.90;;;19.56;100.00;100159.31;4991755;28;20092;-82
2023/07/16 02:46:44;;;;;;;3.55;1.77;;;19.20;99.90;;;19.52;100.00;100153.56;4988985;28;20054;-82
2023/07/16 02:49:10;;;;;;;5.68;1.95;;;19.20;99.90;;;19.48;100.00;100157.97;4985613;28;20481;-81
2023/07/16 02:51:36;;;;;;;3.75;1.90;;;19.20;99.90;;;19.48;100.00;100160.75;4984276;28;20034;-81
2023/07/16 02:54:02;;;;;;;4.97;1.73;;;19.20;99.90;;;19.38;100.00;100167.22;4984953;28;20114;-82
2023/07/16 02:56:27;;;;;;;3.97;1.90;;;19.10;99.90;;;19.31;100.00;100160.34;4986550;28;20080;-82
2023/07/16 02:58:53;;;;;;;4.25;1.77;;;19.00;99.90;;;19.24;100.00;100166.19;4980251;28;20038;-81
2023/07/16 03:01:19;;;;;;;4.32;1.70;;;18.90;99.90;;;19.20;100.00;100159.59;4991393;28;20065;-82
2023/07/16 03:03:45;;;;;;;4.82;1.90;;;18.80;99.90;;;18.98;100.00;100141.47;4984929;28;20035;-82
2023/07/16 03:06:10;;;;;;;3.70;1.70;;;18.70;99.90;;;18.85;100.00;100147.63;4980482;28;20034;-81
2023/07/16 03:08:36;;;;;;;4.82;1.75;;;18.50;99.90;;;18.82;100.00;100155.34;4991405;28;20077;-82
2023/07/16 03:11:02;;;;;;;4.72;1.98;;;18.40;99.90;;;18.70;100.00;100157.63;4996880;28;20372;-82
2023/07/16 03:13:27;;;;;;;3.53;1.90;;;18.30;99.90;;;18.64;100.00;100150.47;4983633;28;20407;-82
2023/07/16 03:15:53;;;;;;;5.00;2.03;;;18.20;99.90;;;18.64;100.00;100156.00;5006805;28;20046;-80
2023/07/16 03:18:20;;;;;;;4.97;2.10;;;18.10;99.90;;;18.43;100.00;100149.72;5000086;28;20038;-82
2023/07/16 03:20:46;;;;;;;4.15;1.65;;;18.10;99.90;;;18.36;100.00;100144.50;4978079;28;20045;-82
2023/07/16 03:23:12;;;;;;;5.82;1.92;;;18.00;99.90;;;18.37;100.00;100154.44;4999489;28;20034;-82
2023/07/16 03:25:38;;;;;;;4.72;2.03;;;18.00;99.90;;;18.38;100.00;100165.19;4990746;28;20498;-82
2023/07/16 03:28:04;;;;;;;5.20;1.85;;;18.00;99.90;;;18.50;100.00;100175.94;4989496;28;20513;-81
2023/07/16 03:30:31;;;;;;;3.63;1.90;;;18.10;99.90;;;18.46;100.00;100172.06;4978051;28;20114;-82
2023/07/16 03:32:57;;;;;;;5.10;2.20;;;18.10;99.90;;;18.48;100.00;100191.94;4980469;28;20769;-83
2023/07/16 03:35:26;;;;;;;6.20;2.20;;;18.20;99.90;;;18.52;100.00;100206.03;4986365;28;20108;-80
2023/07/16 03:37:51;;;;;;;4.53;1.90;;;18.20;99.90;;;18.53;100.00;100202.97;4983663;28;20034;-82
2023/07/16 03:40:25;;;;;;;6.05;2.53;;;18.20;99.90;;;18.59;100.00;100211.28;4988480;28;20542;-86
2023/07/16 03:42:51;;;;;;;5.80;2.28;;;18.20;99.90;;;18.68;100.00;100220.63;4982584;28;20041;-85
2023/07/16 03:45:17;;;;;;;4.25;1.80;;;18.20;99.90;;;18.61;100.00;100217.34;4989592;28;20046;-87
2023/07/16 03:47:43;;;;;;;4.15;1.80;;;18.30;99.90;;;18.66;100.00;100220.06;4991484;28;20039;-85
2023/07/16 03:50:09;;;;;;;3.47;1.80;;;18.30;99.90;;;18.67;100.00;100225.31;4989894;28;20050;-85
2023/07/16 03:52:35;;;;;;;5.45;2.28;;;18.30;99.90;;;18.60;100.00;100223.97;4991749;28;20041;-85
2023/07/16 03:55:01;;;;;;;5.18;2.03;;;18.20;99.90;;;18.51;100.00;100219.00;4984160;28;20038;-86
2023/07/16 03:57:29;;;;;;;4.65;2.17;;;18.20;99.90;;;18.50;100.00;100224.81;4988031;28;20054;-86
2023/07/16 03:59:55;;;;;;;4.75;2.08;;;18.10;99.90;;;18.54;100.00;100232.25;4983889;28;20064;-84
2023/07/16 04:02:21;;;;;;;4.50;2.00;;;18.20;99.90;;;18.58;100.00;100221.47;4988324;28;20037;-83
2023/07/16 04:04:46;;;;;;;4.63;2.08;;;18.20;99.90;;;18.63;100.00;100228.94;4989366;28;20042;-85
2023/07/16 04:07:13;;;;;;;5.13;2.00;;;18.20;99.90;;;18.53;100.00;100236.13;4980535;28;20100;-85
2023/07/16 04:09:39;;;;;;;3.97;2.10;;;18.20;99.90;;;18.57;100.00;100230.88;4983175;28;20130;-84
2023/07/16 04:12:06;;;;;;;4.93;2.30;;;18.20;99.90;;;18.63;100.00;100228.94;4989989;28;20081;-86
2023/07/16 04:14:33;;;;;;;5.05;2.05;;;18.20;99.90;;;18.63;100.00;100245.50;4979765;28;20053;-86
2023/07/16 04:16:58;;;;;;;4.22;2.08;;;18.30;99.90;;;18.59;100.00;100248.00;4986257;28;20038;-86
2023/07/16 04:19:24;;;;;;;5.60;2.50;;;18.30;99.90;;;18.57;100.00;100250.22;4978316;28;20193;-83
2023/07/16 04:21:50;;;;;;;4.68;2.20;;;18.30;99.90;;;18.65;100.00;100257.91;4988316;28;20068;-83
2023/07/16 04:24:16;;;;;;;5.70;2.22;;;18.40;99.90;;;18.71;100.00;100258.72;4992423;28;20038;-87
2023/07/16 04:26:42;;;;;;;5.70;2.00;;;18.50;99.90;;;18.82;100.00;100265.88;4988341;28;20066;-86
2023/07/16 04:29:07;;;;;;;4.30;2.00;;;18.60;99.90;;;18.72;100.00;100259.56;4989628;28;20485;-85
2023/07/16 04:31:33;;;;;;;3.78;2.00;;;18.60;99.90;;;18.98;100.00;100276.91;4979684;28;20053;-84
2023/07/16 04:33:59;;;;;;;3.63;1.90;;;18.70;99.90;;;19.06;100.00;100281.03;4996733;28;20027;-84
2023/07/16 04:36:25;;;;;;;4.60;2.00;;;18.70;99.90;;;19.10;100.00;100277.41;4986346;28;20053;-82
2023/07/16 04:38:51;;;;;;;5.68;2.17;;;18.70;99.90;;;19.15;100.00;100289.56;4981740;28;20031;-84
2023/07/16 04:41:17;;;;;;;4.55;2.13;;;18.80;99.90;;;19.15;100.00;100297.84;4986675;28;20533;-82
2023/07/16 04:43:43;;;;;;;4.88;2.20;;;18.90;99.90;;;19.31;100.00;100304.16;4984680;28;20096;-83
2023/07/16 04:46:08;;;;;;;5.40;2.40;;;19.00;99.90;;;19.32;100.00;100297.50;4989742;28;20441;-82
2023/07/16 04:48:34;;;;;;;4.95;2.20;;;19.00;99.90;;;19.32;100.00;100305.78;4988903;28;20042;-81
2023/07/16 04:51:00;;;;;;;5.38;2.25;;;19.00;99.90;;;19.36;100.00;100307.72;4985730;28;20043;-82
2023/07/16 04:53:25;;;;;;;4.05;2.25;;;19.10;99.90;;;19.42;100.00;100311.25;4988375;28;20101;-82
2023/07/16 04:55:51;;;;;;;4.50;2.25;;;19.10;99.90;;;19.47;100.00;100319.53;4986293;28;20046;-81
2023/07/16 04:58:17;;;;;;;6.65;2.35;;;19.20;99.90;;;19.44;100.00;100330.34;4982768;28;20050;-82
2023/07/16 05:00:43;;;;;;;4.90;2.20;;;19.20;99.90;;;19.52;100.00;100338.03;4981716;28;20371;-82
2023/07/16 05:03:09;;;;;;;3.30;1.80;;;19.30;99.90;;;19.61;100.00;100335.50;4981765;28;20085;-82
2023/07/16 05:05:34;;;;;;;7.00;2.30;;;19.30;99.90;;;19.68;100.00;100342.41;4978347;28;20081;-83
2023/07/16 05:08:01;;;;;;;4.28;2.25;;;19.30;99.90;;;19.71;100.00;100337.41;4986760;28;20058;-81
2023/07/16 05:10:27;;;;;;;3.55;2.08;;;19.40;99.90;;;19.67;100.00;100337.97;4983637;28;20088;-84
2023/07/16 05:12:53;;;;;;;5.55;1.90;;;19.50;99.90;;;19.73;100.00;100343.47;4999292;28;20086;-88
2023/07/16 05:15:20;;;;;;;4.13;1.90;;;19.50;99.90;;;19.79;100.00;100358.94;4973758;28;20049;-85
2023/07/16 05:17:45;;;;;;;5.65;2.20;;;19.60;99.90;;;19.89;100.00;100352.50;4972710;28;20367;-83
2023/07/16 05:20:11;;;;;;;5.05;1.90;;;;;;;19.92;100.00;100355.56;4986792;28;20034;-83
2023/07/16 05:22:38;;;;;;;6.43;2.08;;;;;;;20.10;100.00;100372.59;4988690;28;20049;-81
2023/07/16 05:25:04;;;;;;;5.25;1.95;;;;;;;20.11;100.00;100369.53;4984158;28;20031;-83
2023/07/16 05:27:30;;;;;;;5.53;2.00;;;;;;;20.25;100.00;100369.72;4981571;28;20053;-82
2023/07/16 05:29:57;;;;;;;4.43;1.85;;;;;;;20.36;100.00;100381.53;4988649;28;20034;-85
2023/07/16 05:32:23;;;;;;;4.07;1.65;;;;;;;20.37;100.00;100374.03;4988044;28;20542;-83
2023/07/16 05:34:49;;;;;;;4.55;1.90;;;19.70;99.90;;;20.52;100.00;100385.00;4978849;28;20035;-83
2023/07/16 05:37:15;;;;;;;5.05;1.73;;;20.30;99.90;;;20.67;100.00;100380.44;4983897;28;20045;-82
2023/07/16 05:39:40;;;;;;;4.03;1.60;;;20.40;99.90;;;20.77;100.00;100377.56;4985618;28;20054;-81
2023/07/16 05:42:07;;;;;;;4.35;2.08;;;20.60;99.90;;;20.95;100.00;100383.50;4982957;28;20046;-79
2023/07/16 05:44:33;;;;;;;4.32;1.65;;;20.70;99.90;;;20.97;100.00;100382.09;4985936;28;20038;-81
2023/07/16 05:46:59;;;;;;;6.10;1.90;;;20.80;99.90;;;21.16;100.00;100380.53;4985074;28;20042;-81
2023/07/16 05:49:26;;;;;;;4.10;1.70;;;20.90;99.90;;;21.02;100.00;100384.00;4988851;28;20069;-81
2023/07/16 05:51:52;;;;;;;5.18;1.83;;;21.00;99.90;;;20.94;100.00;100377.16;4986123;28;20401;-79
2023/07/16 05:54:18;;;;;;;3.92;1.63;;;21.00;99.90;;;21.01;100.00;100378.75;4987515;28;20953;-82
2023/07/16 05:56:44;;;;;;;4.15;1.73;;;21.00;99.90;;;20.98;100.00;100394.03;4989749;28;20096;-80
2023/07/16 05:59:09;;;;;;;4.80;1.83;;;21.00;99.90;;;21.03;100.00;100395.91;4987044;28;20787;-78
2023/07/16 06:01:35;;;;;;;4.82;2.00;;;20.90;99.90;;;21.19;100.00;100399.34;4985930;28;20047;-91
2023/07/16 06:04:02;;;;;;;7.75;2.22;;;21.00;99.90;;;21.07;100.00;100388.66;4987925;28;20050;-83
2023/07/16 06:06:30;;;;;;;6.00;2.08;;;21.10;99.90;;;21.19;100.00;100393.78;4976328;28;20045;-83
2023/07/16 06:08:55;;;;;;;4.53;1.75;;;21.10;99.90;;;21.22;100.00;100405.13;4995153;28;20475;-83
2023/07/16 06:11:21;;;;;;;4.65;1.85;;;21.10;99.90;;;21.33;100.00;100389.19;4980871;28;20113;-83
2023/07/16 06:13:47;;;;;;;6.13;1.80;;;21.20;99.90;;;21.42;100.00;100401.28;4991849;28;20050;-82
2023/07/16 06:16:13;;;;;;;6.75;2.03;;;21.30;99.90;;;21.37;100.00;100412.44;4988269;28;20047;-85
2023/07/16 06:18:38;;;;;;;6.40;1.95;;;21.40;99.90;;;21.15;100.00;100407.44;4980793;28;20042;-81
2023/07/16 06:21:04;;;;;;;3.90;1.80;;;21.40;99.90;;;21.51;100.00;100406.19;4993727;28;20039;-85
2023/07/16 06:23:30;;;;;;;5.35;1.73;;;21.40;99.90;;;21.56;100.00;100408.91;4985880;28;20046;-88
2023/07/16 06:25:56;;;;;;;6.70;2.22;;;21.60;99.90;;;21.49;100.00;100406.47;4988064;28;20039;-88
2023/07/16 06:28:23;;;;;;;4.05;1.83;;;21.60;99.90;;;21.48;100.00;100418.72;4976944;28;20368;-88
2023/07/16 06:30:51;;;;;;;4.35;1.90;;;21.50;99.90;;;21.47;100.00;100411.50;4982804;28;20041;-87
2023/07/16 06:33:18;;;;;;;5.03;2.30;;;;;;;21.78;100.00;100416.69;4983733;28;20083;-87
2023/07/16 06:35:47;;;;;;;4.85;1.70;;;21.50;99.90;;;21.85;100.00;100419.09;4985469;28;20047;-88
2023/07/16 06:38:14;;;;;;;5.53;1.95;;;21.80;99.90;;;21.86;100.00;100417.13;4988708;28;20058;-85
2023/07/16 06:40:45;;;;;;;4.57;1.85;;;21.90;99.90;;;22.06;100.00;100414.06;4991716;28;20402;-84
2023/07/16 06:43:11;;;;;;;5.07;2.00;;;;;;;22.18;100.00;100418.38;4984331;28;20039;-90
2023/07/16 06:45:37;;;;;;;3.38;1.95;;;;;;;22.49;100.00;100413.16;4983608;28;20068;-86
2023/07/16 06:48:04;;;;;;;3.83;2.10;;;;;;;22.90;100.00;100425.53;4978059;28;20503;-89
2023/07/16 06:50:31;;;;;;;3.78;1.80;;;;;;;22.95;95.66;100407.94;4987901;28;20039;-85
2023/07/16 06:52:57;;;;;;;5.10;2.10;;;;;;;22.88;98.75;100416.66;5000230;28;20081;-83
2023/07/16 06:55:23;;;;;;;4.85;2.30;;;;;;;22.84;98.00;100430.38;4989546;28;20367;-82
2023/07/16 06:57:49;;;;;;;4.55;2.08;;;;;;;22.57;99.92;100431.09;4989252;28;20034;-86
2023/07/16 07:00:16;;;;;;;6.63;2.20;;;;;;;22.60;99.60;100429.69;4993780;28;20065;-87
2023/07/16 07:02:42;;;;;;;5.50;1.80;;;;;;;22.57;100.00;100424.75;4983928;28;20034;-86
2023/07/16 07:05:08;;;;;;;4.00;1.95;;;;;;;22.44;100.00;100440.19;4988107;28;20054;-88
2023/07/16 07:07:34;;;;;;;5.10;2.30;;;;;;;22.05;100.00;100431.88;4991342;28;20101;-88
2023/07/16 07:10:00;;;;;;;7.13;2.10;;;22.00;99.90;;;21.48;100.00;100437.28;4981480;28;20027;-83
2023/07/16 07:12:26;;;;;;;4.68;2.38;;;21.80;99.90;;;21.91;100.00;100436.53;4986960;28;20398;-83
2023/07/16 07:14:52;;;;;;;6.07;2.00;;;21.90;99.90;;;22.34;100.00;100438.41;5001762;28;20042;-79
2023/07/16 07:17:18;;;;;;;5.45;1.80;;;;;;;22.72;98.54;100435.59;4987692;28;20062;-82
2023/07/16 07:19:44;;;;;;;7.18;2.30;;;;;;;23.17;96.03;100437.03;4986411;28;20031;-85
2023/07/16 07:22:10;;;;;;;4.43;1.95;;;;;;;23.30;92.16;100439.00;4985537;28;20363;-83
2023/07/16 07:24:37;;;;;;;3.78;1.92;;;;;;;23.28;92.71;100444.06;4990837;28;20121;-83
2023/07/16 07:27:03;;;;;;;4.45;1.90;;;;;;;22.71;82.91;100428.38;4988354;28;20493;-84
2023/07/16 07:29:29;;;;;;;7.53;2.00;;;;;;;22.37;77.90;100421.94;4983279;28;20039;-78
2023/07/16 07:31:55;;;;;;;4.45;2.10;;;;;;;22.74;78.16;100433.31;4987349;28;20461;-79
2023/07/16 07:34:22;;;;;;;6.90;2.05;;;;;;;22.59;73.32;100417.72;4989208;28;20448;-83
2023/07/16 07:36:48;;;;;;;6.32;2.00;;;;;;;22.91;70.71;100431.94;4990196;28;20042;-83
2023/07/16 07:39:14;;;;;;;6.78;2.10;;;;;;;22.81;70.88;100433.78;4980427;28;20039;-82
2023/07/16 07:41:41;;;;;;;5.80;1.90;;;;;;;22.48;72.40;100450.41;4991585;28;21010;-84
2023/07/16 07:44:07;;;;;;;7.00;1.85;;;;;;;22.46;73.60;100437.94;4999017;28;20034;-81
2023/07/16 07:46:33;;;;;;;5.63;1.92;;;;;;;22.53;74.07;100458.66;4993506;28;20054;-85
2023/07/16 07:48:59;;;;;;;5.63;2.25;;;22.20;99.90;;;22.06;69.56;100433.53;4999166;28;20030;-85
2023/07/16 07:51:25;;;;;;;5.82;2.45;;;22.40;98.10;;;22.22;68.52;100442.44;5005611;28;20049;-81
2023/07/16 07:53:51;;;;;;;4.38;1.88;;;22.40;98.10;;;22.27;67.74;100434.03;5005632;28;20034;-92
2023/07/16 07:56:16;;;;;;;4.93;2.22;;;22.40;97.90;;;21.90;69.29;100449.56;4989213;28;20129;-85
2023/07/16 07:58:43;;;;;;;5.00;2.00;;;;;;;21.77;70.53;100445.56;4989549;28;20042;-85
2023/07/16 08:01:09;;;;;;;5.25;2.28;;;;;;;21.59;69.19;100447.16;4983703;28;20049;-86
2023/07/16 08:03:35;;;;;;;8.48;2.40;;;;;;;21.80;65.68;100449.72;4985581;28;20043;-85
2023/07/16 08:06:02;;;;;;;7.60;2.75;;;;;;;22.32;67.77;100462.88;4984083;28;20073;-82
2023/07/16 08:08:28;;;;;;;9.18;2.10;;;;;;;22.51;58.53;100443.44;4984676;28;20145;-88
2023/07/16 08:10:55;;;;;;;5.18;2.20;;;;;;;22.65;56.76;100446.28;4965166;28;20050;-89
2023/07/16 08:13:21;;;;;;;6.85;2.42;;;;;;;22.63;54.55;100440.19;4974186;28;20038;-87
2023/07/16 08:15:47;;;;;;;6.68;2.47;;;;;;;22.84;53.72;100447.06;4984567;28;20553;-87
2023/07/16 08:18:14;;;;;;;6.78;2.35;;;;;;;23.05;52.32;100441.09;4997913;28;20042;-85
2023/07/16 08:20:42;;;;;;;7.43;2.60;;;;;;;23.17;50.95;100435.03;4987880;28;20030;-84
2023/07/16 08:23:09;;;;;;;7.03;2.45;;;;;;;23.08;49.26;100434.97;4987897;28;20551;-88
2023/07/16 08:25:35;;;;;;;5.05;2.10;;;;;;;22.95;50.09;100436.59;4974381;28;20077;-88
2023/07/16 08:28:03;;;;;;;8.52;2.40;;;;;;;23.10;50.27;100438.25;4990982;28;20042;-88
2023/07/16 08:30:29;;;;;;;6.60;2.20;;;;;;;23.05;49.69;100432.75;4984018;28;20043;-90
2023/07/16 08:32:55;;;;;;;8.05;2.50;;;;;;;23.25;50.52;100439.94;4989059;28;20393;-89
2023/07/16 08:35:21;;;;;;;4.28;2.08;;;;;;;23.37;50.71;100444.16;4979152;28;20538;-87
2023/07/16 08:37:47;;;;;;;5.35;2.28;;;;;;;23.45;49.58;100421.19;4989513;28;20042;-85
2023/07/16 08:40:14;;;;;;;7.32;2.65;;;;;;;23.43;48.40;100431.78;4975595;28;20035;-89
2023/07/16 08:42:43;;;;;;;6.30;2.57;;;;;;;23.45;47.66;100414.81;4987027;28;20525;-88
2023/07/16 08:45:11;;;;;;;7.10;2.42;;;;;;;23.28;48.59;100430.16;4981882;28;20035;-86
2023/07/16 08:47:37;;;;;;;5.93;2.22;;;;;;;23.33;48.47;100427.25;4985821;28;20061;-87
2023/07/16 08:50:04;;;;;;;6.50;2.47;;;;;;;23.67;49.25;100422.41;4980456;28;20059;-89
2023/07/16 08:52:31;;;;;;;6.10;2.30;;;;;;;23.65;48.84;100425.50;4980978;28;20090;-88
2023/07/16 08:54:57;;;;;;;5.75;2.25;;;;;;;23.72;47.72;100422.28;4971648;28;20295;-89
2023/07/16 08:57:23;;;;;;;7.72;2.72;;;;;;;23.59;49.02;100423.13;4978094;28;20042;-87
2023/07/16 08:59:51;;;;;;;6.00;2.45;;;;;;;23.55;49.92;100432.13;4976056;28;20343;-88
2023/07/16 09:02:18;;;;;;;9.25;2.72;;;;;;;23.81;48.73;100419.59;5004948;28;20027;-85
2023/07/16 09:04:48;;;;;;;;;;;;;;;23.81;47.32;100414.03;4983094;28;20039;-85
2023/07/16 09:07:15;;;;;;;5.80;2.42;;;;;;;23.66;47.97;100429.94;4985782;28;19918;-88
2023/07/16 09:09:41;;;;;;;4.93;2.22;;;;;;;23.78;48.30;100429.41;4992293;28;20045;-84
2023/07/16 09:12:11;;;;;;;5.55;2.45;;;;;;;23.94;46.45;100417.91;4984587;28;20049;-86
2023/07/16 09:14:38;;;;;;;4.72;2.30;;;;;;;24.05;44.93;100411.03;4987230;28;20057;-88
2023/07/16 09:17:04;;;;;;;5.82;2.30;;;;;;;23.94;45.98;100431.84;4989757;28;20140;-83
2023/07/16 09:19:33;;;;;;;7.13;2.30;;;;;;;24.02;46.84;100447.03;4991021;28;20238;-86
2023/07/16 09:21:59;;;;;;;7.50;2.47;;;;;;;24.30;46.63;100456.16;4981210;28;20046;-86
2023/07/16 09:24:26;;;;;;;7.60;2.50;;;;;;;24.49;44.79;100416.94;4989221;28;20039;-82
2023/07/16 09:27:00;;;;;;;6.68;2.20;;;;;;;24.58;44.70;100432.91;4975160;28;20544;-83
2023/07/16 09:29:29;;;;;;;10.13;3.00;;;;;;;24.66;44.14;100434.91;4988163;28;20042;-83
2023/07/16 09:31:59;;;;;;;5.18;2.25;;;;;;;24.69;44.34;100440.69;4997036;28;20050;-83
2023/07/16 09:34:28;;;;;;;5.97;2.25;;;;;;;24.42;44.05;100441.66;4984804;28;20386;-83
2023/07/16 09:36:54;;;;;;;5.60;2.13;;;;;;;24.78;43.14;100454.72;4982247;28;20042;-82
2023/07/16 09:39:22;;;;;;;5.50;2.10;;;;;;;24.68;41.79;100429.88;4989790;28;20057;-85
2023/07/16 09:41:50;;;;;;;6.30;2.10;;;;;;;24.76;42.47;100433.88;4981971;28;20521;-85
2023/07/16 09:44:17;;;;;;;6.13;2.45;;;;;;;24.84;41.87;100441.47;4991255;28;20066;-79
2023/07/16 09:46:44;;;;;;;5.00;2.10;;;;;;;24.94;41.66;100438.41;4983565;28;20050;-80
2023/07/16 09:49:11;;;;;;;5.25;2.42;;;;;;;25.06;41.52;100454.56;4988409;28;20034;-85
2023/07/16 09:51:39;;;;;;;7.65;2.58;;;;;;;25.05;40.75;100416.66;4987531;28;20046;-80
2023/07/16 09:54:06;;;;;;;7.20;2.55;;;;;;;24.95;40.63;100439.25;4986576;28;20065;-81
2023/07/16 09:56:45;;;;;;;8.35;2.72;;;;;;;25.21;40.63;100427.41;4978310;28;20061;-80
2023/07/16 09:59:22;;;;;;;5.38;2.30;;;;;;;25.34;40.27;100432.03;4988260;28;20486;-80
2023/07/16 10:01:50;;;;;;;5.78;2.20;;;;;;;25.62;40.42;100426.25;4992019;28;20046;-79
2023/07/16 10:04:18;;;;;;;6.20;2.22;;;;;;;25.88;39.03;100422.69;4983158;28;20079;-78
2023/07/16 10:06:59;;;;;;;5.13;2.10;;;;;;;26.11;38.48;100425.34;4987300;28;20042;-76
2023/07/16 10:09:50;;;;;;;5.10;2.10;;;;;;;25.77;37.76;100427.75;4992628;28;20048;-77
2023/07/16 10:12:19;;;;;;;6.13;1.77;;;;;;;25.28;39.02;100448.09;4983395;28;20117;-78
2023/07/16 10:14:50;;;;;;;4.45;2.17;;;;;;;25.25;40.43;100453.50;4988645;28;20062;-77
2023/07/16 10:17:21;;;;;;;5.30;2.15;;;;;;;25.41;40.82;100470.66;4992759;28;20100;-78
2023/07/16 10:20:12;;;;;;;5.97;2.00;;;;;;;25.51;36.79;100405.34;4986815;28;20043;-78
2023/07/16 10:22:45;;;;;;;4.53;2.00;;;;;;;25.41;36.78;100410.03;4988408;28;20046;-78
2023/07/16 10:25:20;;;;;;;6.15;2.20;;;;;;;25.84;37.58;100425.28;5003779;28;20043;-77
2023/07/16 10:27:48;;;;;;;5.13;1.80;;;;;;;26.42;37.08;100432.75;4984592;28;20042;-79
2023/07/16 10:30:14;;;;;;;4.45;2.00;;;;;;;27.58;33.98;100378.88;4982491;28;20034;-80
2023/07/16 10:32:41;;;;;;;4.97;1.95;;;;;;;28.15;32.99;100385.13;4987046;28;20043;-77
2023/07/16 10:35:09;;;;;;;3.78;1.92;;;;;;;28.33;31.90;100374.56;4983166;28;20487;-80